Historique des mesures à Cassis (13260), France
Quotidien Résumé Avril 28, 2017 Unités:  US    Métrique   Métrique/US
« Précédent (Jour)
Suivant (Jour) »
Quotidien Hebdomadaire Mensuel Annuel Période au choix
  Maximum: Minimum: Moyenne:
Température: 32 °F 46.2 °F 51.1 °F
Point de rosée: 32 °F 30.7 °F 32.7 °F
Humidité: Humidity % 38 % 47 %
Vitesse du vent: WindSpeedKMH mph 8.2 mph 20.4 mph
Rafales: WindSpeedGustKMH mph - -
Vent:- - SSW
Pression: 0 in 29.8 in -
Précipitations: 0 in    
Historical Graphs
 
 
Mesures pour : Avril 28, 2017
Heure Temperature Point de rosée Pression Vent Vitesse du vent Rafales Humidité Pluie (par heure) Conditions
32 °F 32 °F 0 in Calm     Humidity % 0 in SoftwareType W/m2
00:10 48.6 °F 34.5 °F 29.8 in NW 13.7 mph 16.3 mph 58 % 0 in open2300-1.11 W/m2
01:10 47.5 °F 34 °F 29.8 in NNE 10.5 mph 32.0 mph 59 % 0 in open2300-1.11 W/m2
02:10 46.6 °F 33.8 °F 29.8 in NW 14.3 mph 34.9 mph 61 % 0 in open2300-1.11 W/m2
03:11 46.6 °F 34.2 °F 29.8 in WNW 8.2 mph 19.8 mph 62 % 0 in open2300-1.11 W/m2
04:10 46.2 °F 33.4 °F 29.8 in NW 30.9 mph 30.9 mph 61 % 0 in open2300-1.11 W/m2
05:10 46.2 °F 33.1 °F 29.8 in North 21.2 mph 33.5 mph 60 % 0 in open2300-1.11 W/m2
06:10 46.2 °F 32.7 °F 29.8 in NNE 16.9 mph 24.8 mph 59 % 0 in open2300-1.11 W/m2
07:10 46.2 °F 32.2 °F 29.8 in NNW 33.8 mph 36.0 mph 58 % 0 in open2300-1.11 W/m2
08:10 49.6 °F 32.7 °F 29.8 in NNW 27.4 mph 29.4 mph 52 % 0 in open2300-1.11 W/m2
09:11 47.8 °F 31.8 °F 29.8 in NW 27.7 mph 28.8 mph 54 % 0 in open2300-1.11 W/m2
10:11 49.5 °F 32.2 °F 29.8 in NNW 28.2 mph 63.7 mph 51 % 0 in open2300-1.11 W/m2
11:10 52.7 °F 31.8 °F 29.8 in NNW 28.8 mph 28.8 mph 45 % 0 in open2300-1.11 W/m2
12:10 54.3 °F 32.2 °F 29.8 in NNW 29.4 mph 47.9 mph 43 % 0 in open2300-1.11 W/m2
13:11 55.4 °F 32.5 °F 29.8 in NNE 19.8 mph 19.8 mph 42 % 0 in open2300-1.11 W/m2
14:10 56.5 °F 33.1 °F 29.8 in NNE 23.0 mph 33.8 mph 41 % 0 in open2300-1.11 W/m2
15:10 57.9 °F 33.1 °F 29.8 in North 20.9 mph 31.7 mph 39 % 0 in open2300-1.11 W/m2
16:11 58.6 °F 33.6 °F 29.8 in NE 14.3 mph 49.2 mph 39 % 0 in open2300-1.11 W/m2
17:10 58.8 °F 33.8 °F 29.8 in North 10.8 mph 28.8 mph 39 % 0 in open2300-1.11 W/m2
18:10 58.3 °F 32.7 °F 29.8 in NW 47.1 mph 47.1 mph 38 % 0 in open2300-1.11 W/m2
19:11 57 °F 32.2 °F 29.8 in WNW 19.1 mph 19.1 mph 39 % 0 in open2300-1.11 W/m2
20:11 55.6 °F 31.6 °F 29.8 in NNW 19.1 mph 21.6 mph 40 % 0 in open2300-1.11 W/m2
21:10 54.3 °F 31.6 °F 29.8 in WNW 18.0 mph 18.0 mph 42 % 0 in open2300-1.11 W/m2
22:10 53.4 °F 30.7 °F 29.8 in NNW 19.5 mph 21.9 mph 42 % 0 in open2300-1.11 W/m2
23:10 52.2 °F 31.3 °F 29.8 in North 8.2 mph 20.9 mph 45 % 0 in open2300-1.11 W/m2
Observations météo à CASSIS
WU-History script by Weather Underground - 1 mb